Time;durP1;ratioP1;P1;durP2;ratioP2;P2;SDS_P1;SDS_P2;PMS_P1;PMS_P2;Temp;Humidity;BMP_temperature;BMP_pressure;BME280_temperature;BME280_humidity;BME280_pressure;Samples;Min_cycle;Max_cycle;Signal;HPM_P1;HPM_P2
2023/01/15 00:00:58;;;;;;;13.95;2.17;;;8.50;99.90;;;;;;5055994;28;20024;-69
2023/01/15 00:03:23;;;;;;;17.90;2.63;;;8.50;99.90;;;;;;5061037;28;20040;-69
2023/01/15 00:05:49;;;;;;;13.35;2.38;;;8.50;99.90;;;;;;5072689;28;20036;-71
2023/01/15 00:08:15;;;;;;;11.88;2.13;;;8.50;99.90;;;;;;5066321;28;20029;-69
2023/01/15 00:10:40;;;;;;;11.45;1.98;;;8.50;99.90;;;;;;5062346;28;20151;-69
2023/01/15 00:13:06;;;;;;;16.25;3.28;;;8.50;99.90;;;;;;5072063;28;20507;-70
2023/01/15 00:15:31;;;;;;;20.27;2.28;;;8.50;99.90;;;;;;5067487;28;20457;-70
2023/01/15 00:17:57;;;;;;;11.57;2.00;;;8.50;99.90;;;;;;5068157;28;20059;-71
2023/01/15 00:20:23;;;;;;;12.70;1.90;;;8.50;99.90;;;;;;5061935;28;20024;-70
2023/01/15 00:22:48;;;;;;;14.70;2.45;;;8.40;99.90;;;;;;5071052;28;20040;-69
2023/01/15 00:27:58;;;;;;;7.93;1.73;;;8.40;99.90;;;;;;5066577;28;20032;-69
2023/01/15 00:30:24;;;;;;;17.38;2.53;;;8.40;99.90;;;;;;5067939;28;20029;-69
2023/01/15 00:32:50;;;;;;;13.35;2.25;;;8.30;99.90;;;;;;5070780;28;20535;-69
2023/01/15 00:35:20;;;;;;;17.90;2.95;;;8.30;99.90;;;;;;5056726;28;20457;-69
2023/01/15 00:37:46;;;;;;;23.23;2.50;;;8.30;99.90;;;;;;5062661;28;20107;-72
2023/01/15 00:40:15;;;;;;;16.52;2.70;;;8.20;99.90;;;;;;5071484;28;20108;-70
2023/01/15 00:42:40;;;;;;;13.98;1.88;;;8.20;99.90;;;;;;5070458;28;20127;-69
2023/01/15 00:45:10;;;;;;;11.27;2.10;;;8.20;99.90;;;;;;5057005;28;20104;-70
2023/01/15 00:47:37;;;;;;;12.93;2.95;;;8.20;99.90;;;;;;5062910;28;20104;-70
2023/01/15 00:50:04;;;;;;;11.50;1.85;;;8.10;99.90;;;;;;5065095;28;20046;-69
2023/01/15 00:52:30;;;;;;;20.23;2.95;;;8.10;99.90;;;;;;5055722;28;20053;-70
2023/01/15 00:54:55;;;;;;;19.58;2.40;;;8.10;99.90;;;;;;5068623;28;20029;-69
2023/01/15 00:57:21;;;;;;;13.10;2.55;;;8.00;99.90;;;;;;5059236;28;20059;-70
2023/01/15 00:59:47;;;;;;;15.73;2.55;;;8.00;99.90;;;;;;5061560;28;20071;-70
2023/01/15 01:02:12;;;;;;;19.77;3.35;;;8.00;99.90;;;;;;5066457;28;20044;-69
2023/01/15 01:04:38;;;;;;;18.15;2.05;;;8.00;99.90;;;;;;5061296;28;20084;-68
2023/01/15 01:07:04;;;;;;;16.13;3.67;;;8.00;99.90;;;;;;5064818;28;20360;-68
2023/01/15 01:09:29;;;;;;;14.48;2.05;;;8.00;99.90;;;;;;5047937;28;20465;-69
2023/01/15 01:11:55;;;;;;;14.18;2.33;;;7.90;99.90;;;;;;5067306;28;20062;-69
2023/01/15 01:14:21;;;;;;;14.43;2.50;;;8.00;99.90;;;;;;5064684;28;20481;-70
2023/01/15 01:16:47;;;;;;;11.13;2.33;;;8.10;99.90;;;;;;5066405;28;20044;-69
2023/01/15 01:19:16;;;;;;;12.35;2.40;;;8.10;99.90;;;;;;5063066;28;20036;-69
2023/01/15 01:21:42;;;;;;;13.07;2.13;;;8.10;99.90;;;;;;5064616;28;20037;-69
2023/01/15 01:24:13;;;;;;;14.98;1.95;;;8.10;99.90;;;;;;5065561;28;20032;-69
2023/01/15 01:26:38;;;;;;;17.85;2.83;;;8.10;99.90;;;;;;5064812;28;20140;-70
2023/01/15 01:29:04;;;;;;;10.95;2.88;;;8.10;99.90;;;;;;5088606;28;20112;-69
2023/01/15 01:31:30;;;;;;;12.18;2.22;;;8.10;99.90;;;;;;5067169;28;20039;-68
2023/01/15 01:33:57;;;;;;;16.55;2.30;;;8.10;99.90;;;;;;5069633;28;20511;-69
2023/01/15 01:36:32;;;;;;;14.95;2.10;;;8.10;99.90;;;;;;5070715;28;20398;-70
2023/01/15 01:38:58;;;;;;;16.33;2.80;;;8.10;99.90;;;;;;5069209;28;20421;-69
2023/01/15 01:41:25;;;;;;;13.25;1.88;;;8.20;99.90;;;;;;5073427;28;20086;-69
2023/01/15 01:44:00;;;;;;;14.57;2.47;;;8.10;99.90;;;;;;5070755;28;20136;-69
2023/01/15 01:46:27;;;;;;;14.45;2.30;;;8.10;99.90;;;;;;5075001;28;20803;-69
2023/01/15 01:48:58;;;;;;;17.13;1.98;;;8.10;99.90;;;;;;5071702;28;20117;-69
2023/01/15 01:51:30;;;;;;;12.32;1.63;;;8.20;99.90;;;;;;5061586;28;20110;-69
2023/01/15 01:53:58;;;;;;;18.00;2.30;;;8.10;99.90;;;;;;5059022;28;20029;-68
2023/01/15 01:56:24;;;;;;;11.73;2.25;;;8.10;99.90;;;;;;5048196;28;20093;-69
2023/01/15 01:58:52;;;;;;;13.90;1.80;;;8.20;99.90;;;;;;5074330;28;20108;-69
2023/01/15 02:01:19;;;;;;;15.50;1.98;;;8.10;99.90;;;;;;5074088;28;20036;-68
2023/01/15 02:03:45;;;;;;;16.48;2.67;;;8.10;99.90;;;;;;5077640;28;20024;-70
2023/01/15 02:06:12;;;;;;;15.65;2.78;;;8.20;99.90;;;;;;5075055;28;20108;-68
2023/01/15 02:08:38;;;;;;;9.80;2.50;;;8.20;99.90;;;;;;5066236;28;20037;-69
2023/01/15 02:11:06;;;;;;;17.17;2.58;;;8.20;99.90;;;;;;5073254;28;20025;-70
2023/01/15 02:13:38;;;;;;;12.63;2.17;;;8.20;99.90;;;;;;5072925;28;20158;-69
2023/01/15 02:16:34;;;;;;;17.88;2.60;;;8.20;99.90;;;;;;5067538;28;20128;-69
2023/01/15 02:19:05;;;;;;;12.93;2.20;;;8.20;99.90;;;;;;5072705;28;20032;-69
2023/01/15 02:21:40;;;;;;;16.88;3.13;;;8.10;99.90;;;;;;5068157;28;20043;-69
2023/01/15 02:24:29;;;;;;;15.30;2.90;;;8.10;99.90;;;;;;5067122;28;20021;-69
2023/01/15 02:27:29;;;;;;;12.20;2.03;;;8.20;99.90;;;;;;5072017;28;20028;-69
2023/01/15 02:30:02;;;;;;;12.95;1.70;;;8.20;99.90;;;;;;5057191;28;20044;-69
2023/01/15 02:32:42;;;;;;;17.15;2.10;;;8.20;99.90;;;;;;5072705;28;20383;-69
2023/01/15 02:35:15;;;;;;;15.55;2.63;;;8.20;99.90;;;;;;5064927;28;20029;-68
2023/01/15 02:37:47;;;;;;;11.85;2.20;;;8.20;99.90;;;;;;5073644;28;20440;-68
2023/01/15 02:40:14;;;;;;;10.80;2.50;;;8.20;99.90;;;;;;5059860;28;20085;-69
2023/01/15 02:42:43;;;;;;;13.70;2.15;;;8.20;99.90;;;;;;5070401;28;20043;-69
2023/01/15 02:45:12;;;;;;;8.77;1.70;;;8.20;99.90;;;;;;5059474;28;20025;-69
2023/01/15 02:47:40;;;;;;;12.25;2.15;;;8.20;99.90;;;;;;5064207;28;20461;-68
2023/01/15 02:50:10;;;;;;;13.18;1.95;;;8.20;99.90;;;;;;5071572;28;20021;-69
2023/01/15 02:52:40;;;;;;;10.13;1.83;;;8.10;99.90;;;;;;5070322;28;20099;-70
2023/01/15 02:55:11;;;;;;;9.32;2.58;;;8.10;99.90;;;;;;5058980;28;20777;-69
2023/01/15 02:57:38;;;;;;;16.52;2.13;;;8.20;99.90;;;;;;5064407;28;20033;-69
2023/01/15 03:00:09;;;;;;;13.70;2.13;;;8.10;99.90;;;;;;5057857;28;20104;-68
2023/01/15 03:02:45;;;;;;;11.80;2.17;;;8.10;99.90;;;;;;5070986;28;20036;-69
2023/01/15 03:05:31;;;;;;;7.82;1.50;;;8.10;99.90;;;;;;5066704;28;20021;-69
2023/01/15 03:07:59;;;;;;;15.13;2.08;;;8.10;99.90;;;;;;5059938;28;20037;-68
2023/01/15 03:11:01;;;;;;;9.05;1.52;;;8.10;99.90;;;;;;5073095;28;20024;-69
2023/01/15 03:13:44;;;;;;;12.85;1.92;;;8.10;99.90;;;;;;5047971;28;20488;-69
2023/01/15 03:16:35;;;;;;;13.25;2.38;;;8.00;99.90;;;;;;5073179;28;20484;-70
2023/01/15 03:19:25;;;;;;;14.73;2.40;;;8.00;99.90;;;;;;5057499;28;20161;-68
2023/01/15 03:21:58;;;;;;;14.25;2.00;;;8.00;99.90;;;;;;5062125;28;20039;-70
2023/01/15 03:24:28;;;;;;;14.80;2.75;;;8.00;99.90;;;;;;5069050;28;20419;-69
2023/01/15 03:26:53;;;;;;;11.57;1.80;;;8.00;99.90;;;;;;5048927;28;20121;-70
2023/01/15 03:29:21;;;;;;;13.07;2.00;;;8.00;99.90;;;;;;5059709;28;20527;-69
2023/01/15 03:31:48;;;;;;;12.52;2.25;;;8.00;99.90;;;;;;5062236;28;20044;-69
2023/01/15 03:34:14;;;;;;;14.13;3.42;;;8.00;99.90;;;;;;5067171;28;20426;-69
2023/01/15 03:36:40;;;;;;;12.73;2.03;;;8.00;99.90;;;;;;5056108;28;20060;-69
2023/01/15 03:39:06;;;;;;;13.57;2.85;;;8.00;99.90;;;;;;5068149;28;20104;-68
2023/01/15 03:41:53;;;;;;;14.52;2.08;;;8.00;99.90;;;;;;5061239;28;20075;-68
2023/01/15 03:44:44;;;;;;;10.55;1.67;;;7.90;99.90;;;;;;5072361;28;20460;-69
2023/01/15 03:47:13;;;;;;;13.88;2.03;;;8.00;99.90;;;;;;5059351;28;20028;-70
2023/01/15 03:49:58;;;;;;;17.10;2.22;;;8.00;99.90;;;;;;5045101;28;20055;-69
2023/01/15 03:52:44;;;;;;;10.45;2.05;;;7.90;99.90;;;;;;5068144;28;20024;-69
2023/01/15 03:55:21;;;;;;;16.52;2.50;;;7.90;99.90;;;;;;5058167;28;20024;-68
2023/01/15 03:58:06;;;;;;;11.45;1.95;;;7.90;99.90;;;;;;5061622;28;20021;-69
2023/01/15 04:00:37;;;;;;;17.92;2.72;;;7.90;99.90;;;;;;5069045;28;20452;-69
2023/01/15 04:03:07;;;;;;;14.23;2.47;;;7.90;99.90;;;;;;5062931;28;20478;-70
2023/01/15 04:05:35;;;;;;;12.98;1.80;;;7.90;99.90;;;;;;5063826;28;20522;-69
2023/01/15 04:08:01;;;;;;;13.95;2.47;;;7.90;99.90;;;;;;5064930;28;20437;-70
2023/01/15 04:10:26;;;;;;;18.63;2.40;;;7.90;99.90;;;;;;5056298;28;20096;-68
2023/01/15 04:12:52;;;;;;;10.40;1.83;;;7.90;99.90;;;;;;5069137;28;20096;-70
2023/01/15 04:15:18;;;;;;;11.30;2.03;;;7.90;99.90;;;;;;5058716;28;20434;-69
2023/01/15 04:17:43;;;;;;;12.32;2.00;;;8.00;99.90;;;;;;5071555;28;20140;-68
2023/01/15 04:20:10;;;;;;;13.90;2.35;;;8.00;99.90;;;;;;5058681;28;20057;-69
2023/01/15 04:22:35;;;;;;;13.73;2.33;;;8.00;99.90;;;;;;5068444;28;20535;-69
2023/01/15 04:25:02;;;;;;;15.30;1.80;;;8.00;99.90;;;;;;5056907;28;20112;-69
2023/01/15 04:27:28;;;;;;;16.17;2.40;;;7.90;99.90;;;;;;5064565;28;20087;-68
2023/01/15 04:29:53;;;;;;;15.80;2.25;;;8.00;99.90;;;;;;5045776;28;20028;-70
2023/01/15 04:32:19;;;;;;;9.07;1.73;;;8.00;99.90;;;;;;5057034;28;20431;-69
2023/01/15 04:34:44;;;;;;;18.17;2.47;;;8.00;99.90;;;;;;5052409;28;20029;-69
2023/01/15 04:37:10;;;;;;;13.65;2.13;;;7.90;99.90;;;;;;5066409;28;20044;-69
2023/01/15 04:39:36;;;;;;;13.40;2.10;;;7.90;99.90;;;;;;5061017;28;20031;-69
2023/01/15 04:44:45;;;;;;;13.85;1.90;;;8.00;99.90;;;;;;5068403;28;20431;-69
2023/01/15 04:47:11;;;;;;;10.52;2.20;;;8.00;99.90;;;;;;5057754;28;20016;-69
2023/01/15 04:49:36;;;;;;;13.93;1.77;;;7.90;99.90;;;;;;5062411;28;20033;-69
2023/01/15 04:52:02;;;;;;;14.30;1.88;;;7.90;99.90;;;;;;5057561;28;20028;-69
2023/01/15 04:54:28;;;;;;;17.95;2.05;;;7.90;99.90;;;;;;5068251;28;20043;-69
2023/01/15 04:56:54;;;;;;;14.65;1.77;;;7.80;99.90;;;;;;5055139;28;20155;-68
2023/01/15 04:59:22;;;;;;;12.23;2.35;;;7.80;99.90;;;;;;5065706;28;20029;-69
2023/01/15 05:01:48;;;;;;;7.05;1.77;;;7.80;99.90;;;;;;5060926;28;20118;-70
2023/01/15 05:04:14;;;;;;;15.07;1.70;;;7.80;99.90;;;;;;5066435;28;20071;-69
2023/01/15 05:06:40;;;;;;;10.63;1.50;;;7.80;99.90;;;;;;5055389;28;20120;-69
2023/01/15 05:09:05;;;;;;;13.98;2.28;;;7.70;99.90;;;;;;5071754;28;20040;-69
2023/01/15 05:11:35;;;;;;;10.82;2.00;;;7.70;99.90;;;;;;5063008;28;20029;-69
2023/01/15 05:14:01;;;;;;;8.80;2.45;;;7.60;99.90;;;;;;5064510;28;20021;-69
2023/01/15 05:16:28;;;;;;;15.18;1.92;;;7.60;99.90;;;;;;5055614;28;20052;-68
2023/01/15 05:18:57;;;;;;;9.90;1.85;;;7.60;99.90;;;;;;5068310;28;20028;-69
2023/01/15 05:21:26;;;;;;;14.00;2.30;;;7.60;99.90;;;;;;5058920;28;20024;-69
2023/01/15 05:23:53;;;;;;;9.52;1.30;;;7.60;99.90;;;;;;5060553;28;20087;-69
2023/01/15 05:26:20;;;;;;;15.18;2.05;;;7.60;99.90;;;;;;5067373;28;20056;-69
2023/01/15 05:28:46;;;;;;;8.55;1.50;;;7.50;99.90;;;;;;5067903;28;20060;-68
2023/01/15 05:31:16;;;;;;;13.70;1.98;;;7.40;99.90;;;;;;5068165;28;20024;-69
2023/01/15 05:33:42;;;;;;;10.90;2.00;;;7.30;99.90;;;;;;5060885;28;20033;-69
2023/01/15 05:36:13;;;;;;;11.15;1.42;;;7.20;99.90;;;;;;5069388;28;20044;-70
2023/01/15 05:38:39;;;;;;;11.70;2.10;;;7.20;99.90;;;;;;5069022;28;20397;-69
2023/01/15 05:44:04;;;;;;;6.82;1.52;;;7.20;99.90;;;;;;5057981;28;20044;-69
2023/01/15 05:46:30;;;;;;;11.18;1.45;;;7.20;99.90;;;;;;5060555;28;20127;-69
2023/01/15 05:49:00;;;;;;;8.70;1.60;;;7.20;99.90;;;;;;5067125;28;20394;-69
2023/01/15 05:51:27;;;;;;;7.47;1.67;;;7.20;99.90;;;;;;5074277;28;20119;-68
2023/01/15 05:53:52;;;;;;;11.75;2.03;;;7.10;99.90;;;;;;5063691;28;20029;-68
2023/01/15 05:56:18;;;;;;;9.05;2.00;;;7.10;99.90;;;;;;5070022;28;20047;-69
2023/01/15 05:58:43;;;;;;;11.35;2.13;;;7.10;99.90;;;;;;5057129;28;20029;-69
2023/01/15 06:01:10;;;;;;;16.10;1.50;;;7.10;99.90;;;;;;5061823;28;20075;-69
2023/01/15 06:03:36;;;;;;;9.88;1.77;;;7.10;99.90;;;;;;5073900;28;20498;-69
2023/01/15 06:06:03;;;;;;;10.38;2.05;;;7.10;99.90;;;;;;5072788;28;20025;-68
2023/01/15 06:08:29;;;;;;;14.13;1.80;;;7.00;99.90;;;;;;5074766;28;20052;-69
2023/01/15 06:10:54;;;;;;;15.55;2.20;;;7.10;99.90;;;;;;5072943;28;20071;-68
2023/01/15 06:13:20;;;;;;;15.88;2.22;;;7.00;99.90;;;;;;5066236;28;20091;-69
2023/01/15 06:15:46;;;;;;;10.57;2.05;;;7.00;99.90;;;;;;5070874;28;20547;-69
2023/01/15 06:18:11;;;;;;;8.80;1.58;;;7.00;99.90;;;;;;5073969;28;20439;-69
2023/01/15 06:20:40;;;;;;;17.10;2.00;;;6.90;99.90;;;;;;5072966;28;20456;-69
2023/01/15 06:23:06;;;;;;;10.40;1.60;;;6.90;99.90;;;;;;5059351;28;20043;-69
2023/01/15 06:25:36;;;;;;;10.45;1.65;;;6.90;99.90;;;;;;5069394;28;20082;-69
2023/01/15 06:28:05;;;;;;;14.50;1.83;;;7.00;99.90;;;;;;5074261;28;20032;-69
2023/01/15 06:30:31;;;;;;;16.88;2.47;;;6.90;99.90;;;;;;5060412;28;20028;-69
2023/01/15 06:32:57;;;;;;;13.10;2.75;;;7.00;99.90;;;;;;5066529;28;20028;-69
2023/01/15 06:35:23;;;;;;;8.23;1.48;;;7.00;99.90;;;;;;5067648;28;20046;-70
2023/01/15 06:37:49;;;;;;;13.43;2.10;;;6.90;99.90;;;;;;5063966;28;20044;-69
2023/01/15 06:40:15;;;;;;;8.63;1.67;;;6.90;99.90;;;;;;5059478;28;20033;-69
2023/01/15 06:48:09;;;;;;;10.20;1.83;;;7.00;99.90;;;;;;5063156;28;20032;-69
2023/01/15 06:50:35;;;;;;;19.30;2.75;;;7.00;99.90;;;;;;5055346;28;20032;-69
2023/01/15 06:53:00;;;;;;;10.82;1.83;;;7.00;99.90;;;;;;5072690;28;20043;-71
2023/01/15 06:55:26;;;;;;;18.98;2.30;;;7.00;99.90;;;;;;5073656;28;20025;-69
2023/01/15 06:57:52;;;;;;;13.15;2.47;;;7.00;99.90;;;;;;5044325;28;20431;-69
2023/01/15 07:00:17;;;;;;;13.25;2.20;;;7.00;99.90;;;;;;5068765;28;20151;-68
2023/01/15 07:02:44;;;;;;;20.30;2.60;;;7.00;99.90;;;;;;5055306;28;20040;-70
2023/01/15 07:05:09;;;;;;;10.45;1.80;;;7.10;99.90;;;;;;5057855;28;20047;-70
2023/01/15 07:07:35;;;;;;;11.45;1.90;;;7.00;99.90;;;;;;5070530;28;20028;-68
2023/01/15 07:10:00;;;;;;;10.48;2.00;;;7.10;99.90;;;;;;5063082;28;20146;-68
2023/01/15 07:12:26;;;;;;;13.27;2.08;;;7.00;99.90;;;;;;5067063;28;20033;-68
2023/01/15 07:14:52;;;;;;;14.63;1.83;;;7.00;99.90;;;;;;5058053;28;20355;-67
2023/01/15 07:17:18;;;;;;;13.25;1.90;;;7.00;99.90;;;;;;5055656;28;20095;-69
2023/01/15 07:19:44;;;;;;;9.00;2.28;;;7.00;99.90;;;;;;5055495;28;20477;-69
2023/01/15 07:22:10;;;;;;;11.18;1.85;;;7.00;99.90;;;;;;5055335;28;20040;-69
2023/01/15 07:24:36;;;;;;;22.05;2.97;;;7.10;99.90;;;;;;5066825;28;20396;-68
2023/01/15 07:27:02;;;;;;;8.57;1.70;;;7.10;99.90;;;;;;5056179;28;20025;-70
2023/01/15 07:29:28;;;;;;;10.77;1.33;;;7.10;99.90;;;;;;5055740;28;20028;-69
2023/01/15 07:31:55;;;;;;;5.47;1.30;;;7.10;99.90;;;;;;5055190;28;20025;-68
2023/01/15 07:34:21;;;;;;;14.88;1.85;;;7.10;99.90;;;;;;5055311;28;20065;-69
2023/01/15 07:36:46;;;;;;;17.40;2.05;;;7.10;99.90;;;;;;5057315;28;20033;-70
2023/01/15 07:39:12;;;;;;;12.27;1.88;;;7.00;99.90;;;;;;5055133;28;20021;-71
2023/01/15 07:50:08;;;;;;;17.50;2.17;;;6.50;99.90;;;;;;5054815;28;20051;-70
2023/01/15 07:52:34;;;;;;;11.88;2.40;;;6.40;99.90;;;;;;5055581;28;20021;-70
2023/01/15 07:55:00;;;;;;;8.15;1.45;;;6.50;99.90;;;;;;5056419;28;20452;-70
2023/01/15 07:57:26;;;;;;;14.75;2.38;;;6.50;99.90;;;;;;5054946;28;20029;-69
2023/01/15 07:59:51;;;;;;;16.95;2.58;;;6.60;99.90;;;;;;5056185;28;20376;-69
2023/01/15 08:02:17;;;;;;;20.90;3.22;;;6.60;99.90;;;;;;5059835;28;20033;-70
2023/01/15 08:04:43;;;;;;;15.15;2.35;;;6.70;99.90;;;;;;5054859;28;20036;-69
2023/01/15 08:07:09;;;;;;;15.65;2.35;;;6.70;99.90;;;;;;5069947;28;20025;-69
2023/01/15 08:09:34;;;;;;;14.85;2.45;;;6.80;99.90;;;;;;5069879;28;20032;-68
2023/01/15 08:17:35;;;;;;;18.98;2.25;;;6.90;99.90;;;;;;5056749;28;20491;-69
2023/01/15 08:20:02;;;;;;;22.02;3.33;;;6.90;99.90;;;;;;5070994;28;20437;-69
2023/01/15 08:22:28;;;;;;;13.45;2.72;;;7.00;99.90;;;;;;5071742;28;20153;-69
2023/01/15 08:24:53;;;;;;;20.30;2.75;;;7.00;99.90;;;;;;5067874;28;20032;-69
2023/01/15 08:27:19;;;;;;;13.95;2.30;;;7.10;99.90;;;;;;5069983;28;20056;-69
2023/01/15 08:29:45;;;;;;;21.55;2.65;;;7.20;99.90;;;;;;5069859;28;20108;-69
2023/01/15 08:32:10;;;;;;;13.05;2.35;;;7.20;99.90;;;;;;5070178;28;20108;-68
2023/01/15 08:34:36;;;;;;;22.95;3.17;;;7.30;99.90;;;;;;5070159;28;20043;-69
2023/01/15 08:37:01;;;;;;;17.70;2.80;;;7.30;99.90;;;;;;5068814;28;20036;-69
2023/01/15 08:39:27;;;;;;;15.50;4.03;;;7.30;99.90;;;;;;5070258;28;20025;-69
2023/01/15 08:41:54;;;;;;;13.95;2.85;;;7.40;99.90;;;;;;5065386;28;20044;-69
2023/01/15 08:44:20;;;;;;;14.30;2.30;;;7.40;99.90;;;;;;5054295;28;20049;-69
2023/01/15 08:46:47;;;;;;;12.73;3.25;;;7.40;99.90;;;;;;5056442;28;20460;-68
2023/01/15 08:49:13;;;;;;;13.95;1.88;;;7.40;99.90;;;;;;5054029;28;20036;-69
2023/01/15 08:51:38;;;;;;;16.65;3.17;;;7.50;99.90;;;;;;5054204;28;20461;-68
2023/01/15 08:54:04;;;;;;;14.02;2.70;;;7.60;99.90;;;;;;5061940;28;20020;-69
2023/01/15 08:56:30;;;;;;;18.30;2.92;;;7.70;99.90;;;;;;5067609;28;20517;-69
2023/01/15 08:58:55;;;;;;;22.08;2.92;;;7.70;99.90;;;;;;5053881;28;20032;-69
2023/01/15 09:01:21;;;;;;;18.17;2.95;;;7.70;99.90;;;;;;5054283;28;20025;-69
2023/01/15 09:03:46;;;;;;;15.75;2.88;;;7.80;99.90;;;;;;5054143;28;20091;-68
2023/01/15 09:06:12;;;;;;;14.00;2.45;;;7.80;99.90;;;;;;5054162;28;20029;-69
2023/01/15 09:08:38;;;;;;;18.00;2.88;;;7.90;99.90;;;;;;5054892;28;20469;-69
2023/01/15 09:11:08;;;;;;;19.85;1.77;;;7.90;99.90;;;;;;5054958;28;20082;-69
2023/01/15 09:13:35;;;;;;;18.13;2.60;;;7.90;99.90;;;;;;5053816;28;20082;-68
2023/01/15 09:16:02;;;;;;;19.08;3.17;;;7.90;99.90;;;;;;5053703;28;20095;-69
2023/01/15 09:18:28;;;;;;;18.38;2.40;;;8.00;99.90;;;;;;5035739;28;20029;-69
2023/01/15 09:20:54;;;;;;;17.67;2.28;;;8.10;99.90;;;;;;5055992;28;20024;-69
2023/01/15 09:23:19;;;;;;;11.05;2.47;;;8.10;99.90;;;;;;5039574;28;20424;-69
2023/01/15 09:25:57;;;;;;;21.05;2.63;;;8.10;99.90;;;;;;5057524;28;20037;-69
2023/01/15 09:28:23;;;;;;;17.42;2.75;;;8.10;99.90;;;;;;5057465;28;20037;-70
2023/01/15 09:30:49;;;;;;;18.75;2.65;;;8.10;99.90;;;;;;5041760;28;20056;-69
2023/01/15 09:33:14;;;;;;;13.95;2.83;;;8.10;99.90;;;;;;5057782;28;20052;-69
2023/01/15 09:35:42;;;;;;;16.95;3.92;;;8.10;99.90;;;;;;5057381;28;20029;-68
2023/01/15 09:38:11;;;;;;;12.18;2.33;;;8.10;99.90;;;;;;5056845;28;20029;-69
2023/01/15 09:40:47;;;;;;;15.32;3.53;;;8.20;99.90;;;;;;5058271;28;20025;-69
2023/01/15 09:43:39;;;;;;;19.10;2.85;;;8.20;99.90;;;;;;5067763;28;20495;-69
2023/01/15 09:46:14;;;;;;;22.23;2.80;;;8.20;99.90;;;;;;5080824;28;20052;-69
2023/01/15 09:49:29;;;;;;;17.02;2.70;;;8.20;99.90;;;;;;5061943;28;20027;-69
2023/01/15 09:52:28;;;;;;;12.98;2.45;;;8.30;99.90;;;;;;4995265;28;20394;-69
2023/01/15 09:55:14;;;;;;;16.45;2.13;;;8.30;99.90;;;;;;5070321;28;20017;-69
2023/01/15 09:57:40;;;;;;;14.68;1.88;;;8.40;99.90;;;;;;5072717;28;20071;-69
2023/01/15 10:00:16;;;;;;;8.85;2.25;;;8.30;99.90;;;;;;5072626;28;20044;-68
2023/01/15 10:03:27;;;;;;;16.88;2.38;;;8.40;99.90;;;;;;5071514;28;20048;-67
2023/01/15 10:06:14;;;;;;;13.85;2.45;;;8.40;99.90;;;;;;5043986;28;20044;-69
2023/01/15 10:08:45;;;;;;;16.90;2.42;;;8.40;99.90;;;;;;5058116;28;20103;-68
2023/01/15 10:11:13;;;;;;;14.93;2.90;;;8.40;99.90;;;;;;5055800;28;20024;-68
2023/01/15 10:13:49;;;;;;;17.90;2.58;;;8.40;99.90;;;;;;5068443;28;20061;-70
2023/01/15 10:16:33;;;;;;;23.80;2.60;;;8.50;99.90;;;;;;5061833;28;20052;-69
2023/01/15 10:19:03;;;;;;;17.70;2.50;;;8.70;99.90;;;;;;5070738;28;20033;-70
2023/01/15 10:21:32;;;;;;;13.70;2.60;;;9.00;99.90;;;;;;5071923;28;20036;-68
2023/01/15 10:24:08;;;;;;;14.35;2.30;;;9.40;99.90;;;;;;5072441;28;20036;-68
2023/01/15 10:26:43;;;;;;;15.15;2.42;;;9.50;99.90;;;;;;5071285;28;20025;-68
2023/01/15 10:29:25;;;;;;;15.13;2.72;;;9.50;99.90;;;;;;5071881;28;20025;-69
2023/01/15 10:31:52;;;;;;;;;;;9.60;99.90;;;;;;5072578;28;20029;-68
2023/01/15 10:34:52;;;;;;;18.20;3.20;;;9.60;99.90;;;;;;5071561;28;19912;-69
2023/01/15 10:37:28;;;;;;;21.17;2.83;;;9.70;99.90;;;;;;5060795;28;20024;-68
2023/01/15 10:40:19;;;;;;;16.48;3.13;;;9.60;99.90;;;;;;5062893;28;20052;-69
2023/01/15 10:43:11;;;;;;;15.75;2.55;;;9.50;99.90;;;;;;5061254;28;20033;-68
2023/01/15 10:45:45;;;;;;;13.00;2.47;;;9.40;99.90;;;;;;5056858;28;20496;-69
2023/01/15 10:48:24;;;;;;;11.85;2.22;;;9.40;99.90;;;;;;5067209;28;20036;-68
2023/01/15 10:50:50;;;;;;;15.50;2.67;;;9.30;99.90;;;;;;5054767;28;20380;-68
2023/01/15 10:53:33;;;;;;;13.95;2.53;;;9.10;99.90;;;;;;5060032;28;20035;-69
2023/01/15 10:56:31;;;;;;;12.90;2.10;;;9.10;99.90;;;;;;5061770;28;20033;-69
2023/01/15 10:59:23;;;;;;;27.08;3.08;;;9.10;99.90;;;;;;5057155;28;20036;-69
2023/01/15 11:01:54;;;;;;;14.52;2.35;;;9.00;99.90;;;;;;5061721;28;20071;-68
2023/01/15 11:04:20;;;;;;;22.20;2.97;;;9.00;99.90;;;;;;5068346;28;20033;-69
2023/01/15 11:06:45;;;;;;;18.50;2.92;;;9.00;99.90;;;;;;5054809;28;20036;-69
2023/01/15 11:09:20;;;;;;;12.98;2.42;;;9.00;99.90;;;;;;5053967;28;20134;-68
2023/01/15 11:20:25;;;;;;;13.48;3.30;;;9.00;99.90;;;;;;5071888;28;20120;-68
2023/01/15 11:22:53;;;;;;;15.73;2.85;;;9.00;99.90;;;;;;5073227;28;20086;-68
2023/01/15 11:25:30;;;;;;;15.07;2.58;;;9.00;99.90;;;;;;5073600;28;20077;-68
2023/01/15 11:28:02;;;;;;;15.82;2.40;;;9.00;99.90;;;;;;5073089;28;20365;-69
2023/01/15 11:30:37;;;;;;;18.95;2.38;;;9.10;99.90;;;;;;5073178;28;20028;-69
2023/01/15 11:33:05;;;;;;;11.57;2.70;;;9.20;99.90;;;;;;5054699;28;20424;-68
2023/01/15 11:35:33;;;;;;;17.40;2.75;;;9.20;99.90;;;;;;5073383;28;20070;-69
2023/01/15 11:38:07;;;;;;;19.08;2.88;;;9.00;99.90;;;;;;5073604;28;20043;-69
2023/01/15 11:40:33;;;;;;;13.50;3.58;;;8.90;99.90;;;;;;5061854;28;20029;-70
2023/01/15 11:51:30;;;;;;;12.13;3.10;;;9.10;99.90;;;;;;5072568;28;20403;-70
2023/01/15 11:54:04;;;;;;;16.73;2.97;;;9.00;99.90;;;;;;5057208;28;20382;-69
2023/01/15 11:56:53;;;;;;;16.58;2.50;;;9.10;99.90;;;;;;5052678;28;20227;-69
2023/01/15 11:59:19;;;;;;;17.65;3.50;;;9.20;99.90;;;;;;5073186;28;20031;-67
2023/01/15 12:01:58;;;;;;;20.95;3.97;;;9.40;99.90;;;;;;5068769;28;20032;-69
2023/01/15 12:04:33;;;;;;;15.00;2.35;;;9.60;99.90;;;;;;5052904;28;20037;-69
2023/01/15 12:07:00;;;;;;;13.40;2.00;;;9.60;99.90;;;;;;5052834;28;20025;-69
2023/01/15 12:09:55;;;;;;;13.25;2.28;;;9.60;99.90;;;;;;5052420;28;20369;-69
2023/01/15 12:12:44;;;;;;;16.95;2.55;;;9.80;99.90;;;;;;5051142;28;20056;-67
2023/01/15 12:15:32;;;;;;;18.63;3.00;;;10.10;99.90;;;;;;5052808;28;20104;-69
2023/01/15 12:18:06;;;;;;;12.82;2.75;;;10.30;99.90;;;;;;5071781;28;20048;-69
2023/01/15 12:20:58;;;;;;;15.73;3.55;;;10.30;99.90;;;;;;5054599;28;20020;-69
2023/01/15 12:23:55;;;;;;;20.63;3.53;;;10.00;99.90;;;;;;5072701;28;20403;-69
2023/01/15 12:26:25;;;;;;;12.27;2.60;;;9.80;99.90;;;;;;5054374;28;20039;-69
2023/01/15 12:29:13;;;;;;;15.02;2.95;;;9.50;99.90;;;;;;5052327;28;20109;-69
2023/01/15 12:31:57;;;;;;;16.52;2.45;;;9.40;99.90;;;;;;5052605;28;20463;-67
2023/01/15 12:34:28;;;;;;;15.30;2.30;;;9.30;99.90;;;;;;5052294;28;20083;-68
2023/01/15 12:37:01;;;;;;;21.92;2.97;;;9.10;99.90;;;;;;5052532;28;20553;-69
2023/01/15 12:40:09;;;;;;;18.25;2.90;;;9.10;99.90;;;;;;5052840;28;20079;-68
2023/01/15 12:45:24;;;;;;;14.23;2.88;;;9.10;99.90;;;;;;5067837;28;20531;-69
2023/01/15 12:48:04;;;;;;;15.30;2.50;;;9.10;99.90;;;;;;5071941;28;20074;-68
2023/01/15 12:50:51;;;;;;;13.20;1.98;;;9.00;99.90;;;;;;5064938;28;20182;-69
2023/01/15 12:53:26;;;;;;;15.98;3.33;;;8.90;99.90;;;;;;5052347;28;20064;-69
2023/01/15 12:56:15;;;;;;;19.35;2.85;;;8.80;99.90;;;;;;5052387;28;20116;-68
2023/01/15 12:58:52;;;;;;;18.13;2.75;;;8.80;99.90;;;;;;5056741;28;20366;-69
2023/01/15 13:01:45;;;;;;;14.32;2.67;;;8.80;99.90;;;;;;5056115;28;20087;-69
2023/01/15 13:04:29;;;;;;;16.77;3.40;;;8.80;99.90;;;;;;5055558;28;20037;-69
2023/01/15 13:07:10;;;;;;;16.30;2.30;;;8.90;99.90;;;;;;5055776;28;20029;-69
2023/01/15 13:09:42;;;;;;;17.42;2.60;;;9.00;99.90;;;;;;5056442;28;20108;-69
2023/01/15 13:12:13;;;;;;;14.25;2.30;;;9.10;99.90;;;;;;5055886;28;20033;-69
2023/01/15 13:14:38;;;;;;;14.13;2.25;;;9.10;99.90;;;;;;5056296;28;20503;-69
2023/01/15 13:17:26;;;;;;;15.13;2.63;;;9.10;99.90;;;;;;5075579;28;20041;-68
2023/01/15 13:19:51;;;;;;;14.93;2.00;;;9.10;99.90;;;;;;5072300;28;20033;-68
2023/01/15 13:22:24;;;;;;;19.45;2.85;;;9.10;99.90;;;;;;5055527;28;20456;-68
2023/01/15 13:25:21;;;;;;;19.23;2.55;;;9.10;99.90;;;;;;5055654;28;20115;-69
2023/01/15 13:28:12;;;;;;;16.15;2.42;;;9.00;99.90;;;;;;5055885;28;20499;-69
2023/01/15 13:30:56;;;;;;;11.32;2.13;;;9.00;99.90;;;;;;5066696;28;20029;-67
2023/01/15 13:33:32;;;;;;;15.35;2.20;;;8.90;99.90;;;;;;5065722;28;20047;-71
2023/01/15 13:36:19;;;;;;;13.10;2.10;;;8.80;99.90;;;;;;5065038;28;20077;-69
2023/01/15 13:38:51;;;;;;;14.02;2.15;;;8.60;99.90;;;;;;5074880;28;20054;-70
2023/01/15 13:44:18;;;;;;;13.53;1.87;;;8.40;99.90;;;;;;5059316;28;20055;-70
2023/01/15 13:46:46;;;;;;;13.05;2.33;;;8.20;99.90;;;;;;5068333;28;20539;-69
2023/01/15 13:49:31;;;;;;;16.85;2.47;;;8.00;99.90;;;;;;5061714;28;20060;-71
2023/01/15 13:52:02;;;;;;;13.23;2.67;;;7.90;99.90;;;;;;5074482;28;20032;-71
2023/01/15 13:54:30;;;;;;;10.87;1.53;;;7.80;99.90;;;;;;5072720;28;20078;-70
2023/01/15 13:57:23;;;;;;;15.65;2.85;;;7.70;99.90;;;;;;5063022;28;20676;-69
2023/01/15 13:59:49;;;;;;;13.05;1.60;;;7.60;99.90;;;;;;5070458;28;20453;-70